Time;durP1;ratioP1;P1;durP2;ratioP2;P2;SDS_P1;SDS_P2;PMS_P1;PMS_P2;Temp;Humidity;BMP_temperature;BMP_pressure;BME280_temperature;BME280_humidity;BME280_pressure;Samples;Min_cycle;Max_cycle;Signal;HPM_P1;HPM_P2
2021/09/16 00:00:15;;;;;;;;;;;;;;;16.55;91.04;96360.72;5053697;28;19965;-81
2021/09/16 00:02:41;;;;;;;;;;;;;;;16.57;90.97;96363.91;5053353;28;19962;-81
2021/09/16 00:05:11;;;;;;;;;;;;;;;16.57;91.23;96368.41;5053265;28;19986;-81
2021/09/16 00:07:37;;;;;;;;;;;;;;;16.56;91.25;96370.25;5053933;28;20312;-81
2021/09/16 00:10:07;;;;;;;;;;;;;;;16.57;91.45;96366.56;5053495;28;19962;-81
2021/09/16 00:12:33;;;;;;;;;;;;;;;16.56;91.11;96362.31;5053336;28;19968;-81
2021/09/16 00:14:58;;;;;;;;;;;;;;;16.58;91.19;96359.41;5053522;28;19975;-81
2021/09/16 00:17:24;;;;;;;;;;;;;;;16.56;91.34;96357.00;5053545;28;19969;-81
2021/09/16 00:19:50;;;;;;;;;;;;;;;16.55;91.26;96360.72;5054296;28;20019;-81
2021/09/16 00:22:17;;;;;;;;;;;;;;;16.55;90.74;96365.22;5053524;28;19969;-80
2021/09/16 00:24:43;;;;;;;;;;;;;;;16.55;90.85;96365.22;5053337;28;19973;-81
2021/09/16 00:27:09;;;;;;;;;;;;;;;16.55;91.27;96371.31;5053413;28;20341;-81
2021/09/16 00:29:35;;;;;;;;;;;;;;;16.55;90.73;96378.47;5053135;28;19966;-81
2021/09/16 00:32:00;;;;;;;;;;;;;;;16.53;90.73;96376.06;5053499;28;19999;-81
2021/09/16 00:34:26;;;;;;;;;;;;;;;16.54;90.89;96382.16;5053524;28;20003;-81
2021/09/16 00:36:52;;;;;;;;;;;;;;;16.53;90.78;96376.06;5053155;28;20320;-81
2021/09/16 00:39:18;;;;;;;;;;;;;;;16.54;90.81;96376.84;5052060;28;19969;-81
2021/09/16 00:41:44;;;;;;;;;;;;;;;16.54;91.26;96374.22;5053134;28;20002;-81
2021/09/16 00:44:10;;;;;;;;;;;;;;;16.52;91.20;96382.41;5053004;28;20017;-81
2021/09/16 00:46:36;;;;;;;;;;;;;;;16.53;91.58;96370.78;5053562;28;20035;-81
2021/09/16 00:49:04;;;;;;;;;;;;;;;16.54;91.16;96366.28;5054660;28;20446;-81
2021/09/16 00:51:30;;;;;;;;;;;;;;;16.54;91.62;96364.41;5057572;28;19971;-81
2021/09/16 00:53:57;;;;;;;;;;;;;;;16.53;91.62;96360.19;5057141;28;19971;-81
2021/09/16 00:56:24;;;;;;;;;;;;;;;16.54;91.71;96367.06;5057094;28;20033;-81
2021/09/16 00:58:51;;;;;;;;;;;;;;;16.54;91.36;96377.66;5056809;28;19968;-81
2021/09/16 01:01:18;;;;;;;;;;;;;;;16.55;91.34;96373.16;5057113;28;20317;-81
2021/09/16 01:03:44;;;;;;;;;;;;;;;16.55;91.36;96379.25;5056859;28;19961;-81
2021/09/16 01:06:11;;;;;;;;;;;;;;;16.57;91.24;96376.34;5057101;28;20329;-81
2021/09/16 01:08:37;;;;;;;;;;;;;;;16.57;91.52;96373.72;5056742;28;19959;-81
2021/09/16 01:11:03;;;;;;;;;;;;;;;16.57;91.76;96379.78;5056575;28;19968;-81
2021/09/16 01:13:29;;;;;;;;;;;;;;;16.58;91.21;96377.94;5056616;28;20064;-81
2021/09/16 01:15:56;;;;;;;;;;;;;;;16.57;91.53;96376.34;5056765;28;19970;-81
2021/09/16 01:18:22;;;;;;;;;;;;;;;16.55;91.70;96378.47;5056807;28;19959;-81
2021/09/16 01:20:48;;;;;;;;;;;;;;;16.54;91.56;96379.50;5056542;28;19962;-81
2021/09/16 01:23:14;;;;;;;;;;;;;;;16.53;91.59;96389.31;5055973;28;19991;-81
2021/09/16 01:25:40;;;;;;;;;;;;;;;16.54;91.80;96384.78;5056606;28;19974;-81
2021/09/16 01:28:06;;;;;;;;;;;;;;;16.54;92.76;96382.94;5056249;28;20039;-81
2021/09/16 01:30:32;;;;;;;;;;;;;;;16.55;91.69;96373.16;5056548;28;19955;-81
2021/09/16 01:32:58;;;;;;;;;;;;;;;16.54;91.72;96368.91;5056488;28;19965;-81
2021/09/16 01:35:24;;;;;;;;;;;;;;;16.53;92.45;96365.47;5054683;28;20467;-81
2021/09/16 01:37:50;;;;;;;;;;;;;;;16.52;92.33;96361.22;5056224;28;19968;-81
2021/09/16 01:40:22;;;;;;;;;;;;;;;16.53;92.34;96357.53;5055621;28;19971;-81
2021/09/16 01:42:48;;;;;;;;;;;;;;;16.53;92.52;96360.19;5055865;28;19962;-81
2021/09/16 01:45:14;;;;;;;;;;;;;;;16.54;92.40;96353.03;5056226;28;19979;-81
2021/09/16 01:47:41;;;;;;;;;;;;;;;16.55;92.16;96358.06;5056168;28;19963;-81
2021/09/16 01:50:07;;;;;;;;;;;;;;;16.55;92.17;96355.44;5056035;28;20432;-81
2021/09/16 01:52:33;;;;;;;;;;;;;;;16.56;92.27;96351.72;5056257;28;19987;-81
2021/09/16 01:54:59;;;;;;;;;;;;;;;16.58;92.14;96359.41;5055855;28;19970;-81
2021/09/16 01:57:25;;;;;;;;;;;;;;;16.57;92.23;96355.19;5055990;28;20045;-81
2021/09/16 01:59:51;;;;;;;;;;;;;;;16.57;92.62;96358.63;5055754;28;20043;-81
2021/09/16 02:02:16;;;;;;;;;;;;;;;16.57;92.32;96353.31;5055712;28;20010;-81
2021/09/16 02:04:42;;;;;;;;;;;;;;;16.57;92.40;96350.66;5055830;28;19974;-81
2021/09/16 02:07:08;;;;;;;;;;;;;;;16.58;92.26;96360.19;5056053;28;19974;-81
2021/09/16 02:09:34;;;;;;;;;;;;;;;16.57;91.92;96355.19;5055422;28;20014;-81
2021/09/16 02:12:00;;;;;;;;;;;;;;;16.57;92.29;96342.72;5055887;28;19971;-81
2021/09/16 02:14:26;;;;;;;;;;;;;;;16.55;92.20;96347.47;5055500;28;20017;-81
2021/09/16 02:16:52;;;;;;;;;;;;;;;16.57;91.95;96341.94;5054390;28;20024;-80
2021/09/16 02:19:17;;;;;;;;;;;;;;;16.56;92.19;96341.13;5055345;28;19959;-81
2021/09/16 02:21:43;;;;;;;;;;;;;;;16.55;92.00;96339.53;5055316;28;19965;-81
2021/09/16 02:24:09;;;;;;;;;;;;;;;16.55;91.91;96336.91;5055637;28;20385;-80
2021/09/16 02:26:35;;;;;;;;;;;;;;;16.56;91.98;96335.03;5055249;28;19973;-81
2021/09/16 02:29:01;;;;;;;;;;;;;;;16.53;91.67;96331.06;5055217;28;19973;-81
2021/09/16 02:31:27;;;;;;;;;;;;;;;16.53;92.15;96327.63;5055215;28;20015;-81
2021/09/16 02:33:53;;;;;;;;;;;;;;;16.54;91.84;96337.16;5055202;28;20006;-81
2021/09/16 02:36:19;;;;;;;;;;;;;;;16.53;92.15;96332.91;5055252;28;19960;-81
2021/09/16 02:38:44;;;;;;;;;;;;;;;16.52;92.28;96332.09;5054903;28;19958;-81
2021/09/16 02:41:10;;;;;;;;;;;;;;;16.50;91.71;96330.78;5052892;28;20334;-81
2021/09/16 02:43:36;;;;;;;;;;;;;;;16.48;91.81;96331.03;5055428;28;19961;-81
2021/09/16 02:46:02;;;;;;;;;;;;;;;16.46;91.90;96321.75;5054837;28;19978;-81
2021/09/16 02:48:28;;;;;;;;;;;;;;;16.43;91.87;96320.44;5055085;28;20010;-81
2021/09/16 02:50:54;;;;;;;;;;;;;;;16.43;91.97;96328.38;5054898;28;20001;-81
2021/09/16 02:53:20;;;;;;;;;;;;;;;16.44;92.47;96325.47;5054640;28;20445;-81
2021/09/16 02:55:45;;;;;;;;;;;;;;;16.43;92.65;96323.88;5055371;28;19971;-81
2021/09/16 02:58:11;;;;;;;;;;;;;;;16.43;92.60;96323.88;5054682;28;20358;-81
2021/09/16 03:00:37;;;;;;;;;;;;;;;16.44;92.55;96328.13;5054463;28;19961;-81
2021/09/16 03:03:03;;;;;;;;;;;;;;;16.44;92.52;96325.47;5054447;28;19961;-81
2021/09/16 03:05:29;;;;;;;;;;;;;;;16.44;92.55;96327.28;5054718;28;20015;-81
2021/09/16 03:07:55;;;;;;;;;;;;;;;16.46;92.60;96329.69;5054442;28;20011;-81
2021/09/16 03:10:21;;;;;;;;;;;;;;;16.45;92.80;96323.63;5054527;28;19969;-81
2021/09/16 03:12:47;;;;;;;;;;;;;;;16.43;92.63;96315.91;5052658;28;20371;-81
2021/09/16 03:15:13;;;;;;;;;;;;;;;16.46;92.73;96319.09;5054845;28;20003;-81
2021/09/16 03:17:39;;;;;;;;;;;;;;;16.46;92.85;96316.47;5054256;28;19966;-81
2021/09/16 03:20:05;;;;;;;;;;;;;;;16.45;93.05;96318.31;5054296;28;19962;-81
2021/09/16 03:22:31;;;;;;;;;;;;;;;16.43;91.79;96318.56;5054205;28;19985;-81
2021/09/16 03:24:57;;;;;;;;;;;;;;;16.43;92.25;96323.88;5054376;28;20471;-81
2021/09/16 03:27:23;;;;;;;;;;;;;;;16.44;92.60;96317.53;5052497;28;19964;-81
2021/09/16 03:29:48;;;;;;;;;;;;;;;16.44;93.03;96320.19;5054680;28;20475;-81
2021/09/16 03:32:14;;;;;;;;;;;;;;;16.45;92.84;96320.97;5054037;28;20449;-81
2021/09/16 03:34:40;;;;;;;;;;;;;;;16.45;92.89;96320.97;5054068;28;19969;-81
2021/09/16 03:37:06;;;;;;;;;;;;;;;16.46;92.54;96319.09;5053845;28;20014;-81
2021/09/16 03:39:32;;;;;;;;;;;;;;;16.46;92.56;96319.91;5054226;28;19960;-81
2021/09/16 03:41:58;;;;;;;;;;;;;;;16.46;92.77;96322.53;5054028;28;19956;-81
2021/09/16 03:44:24;;;;;;;;;;;;;;;16.46;92.81;96325.19;5053883;28;19968;-81
2021/09/16 03:46:53;;;;;;;;;;;;;;;16.46;93.17;96327.03;5053884;28;19975;-81
2021/09/16 03:49:19;;;;;;;;;;;;;;;16.45;92.80;96323.63;5053791;28;20027;-81
2021/09/16 03:51:45;;;;;;;;;;;;;;;16.44;92.43;96320.19;5053634;28;19964;-81
2021/09/16 03:54:11;;;;;;;;;;;;;;;16.44;92.75;96320.19;5053925;28;20353;-81
2021/09/16 03:56:36;;;;;;;;;;;;;;;16.44;92.58;96335.25;5052572;28;19967;-81
2021/09/16 03:59:02;;;;;;;;;;;;;;;16.43;92.87;96325.72;5053949;28;19991;-81
2021/09/16 04:01:28;;;;;;;;;;;;;;;16.41;93.00;96330.47;5053651;28;20017;-81
2021/09/16 04:03:54;;;;;;;;;;;;;;;16.40;92.65;96323.59;5053963;28;19977;-81
2021/09/16 04:06:20;;;;;;;;;;;;;;;16.39;93.20;96325.44;5053247;28;20035;-81
2021/09/16 04:08:46;;;;;;;;;;;;;;;16.39;93.02;96319.34;5053514;28;19958;-81
2021/09/16 04:11:12;;;;;;;;;;;;;;;16.40;93.07;96326.25;5053694;28;20058;-81
2021/09/16 04:13:37;;;;;;;;;;;;;;;16.40;93.41;96331.53;5053129;28;19960;-81
2021/09/16 04:16:04;;;;;;;;;;;;;;;16.39;93.27;96325.44;5053537;28;19991;-81
2021/09/16 04:18:30;;;;;;;;;;;;;;;16.40;93.27;96323.59;5053425;28;20336;-81
2021/09/16 04:20:56;;;;;;;;;;;;;;;16.39;93.18;96328.06;5053190;28;20340;-81
2021/09/16 04:23:22;;;;;;;;;;;;;;;16.40;93.09;96332.34;5056090;28;19992;-81
2021/09/16 04:25:47;;;;;;;;;;;;;;;16.40;93.31;96334.19;5057833;28;20026;-81
2021/09/16 04:28:13;;;;;;;;;;;;;;;16.40;93.27;96334.97;5057525;28;19955;-81
2021/09/16 04:30:39;;;;;;;;;;;;;;;16.40;93.38;96334.19;5057730;28;20058;-81
2021/09/16 04:33:06;;;;;;;;;;;;;;;16.40;93.52;96329.69;5057529;28;20426;-77
2021/09/16 04:35:32;;;;;;;;;;;;;;;16.41;93.40;96335.78;5057326;28;19966;-78
2021/09/16 04:37:58;;;;;;;;;;;;;;;16.38;93.25;96331.78;5057584;28;19962;-77
2021/09/16 04:40:24;;;;;;;;;;;;;;;16.37;94.10;96335.47;5056443;28;20007;-77
2021/09/16 04:42:50;;;;;;;;;;;;;;;16.36;94.68;96333.09;5057626;28;20512;-77
2021/09/16 04:45:16;;;;;;;;;;;;;;;16.34;95.46;96329.91;5057207;28;19966;-77
2021/09/16 04:47:42;;;;;;;;;;;;;;;16.34;95.88;96335.22;5057310;28;19966;-77
2021/09/16 04:50:09;;;;;;;;;;;;;;;16.32;95.29;96339.97;5056714;28;19969;-77
2021/09/16 04:52:35;;;;;;;;;;;;;;;16.31;95.52;96338.34;5057337;28;19972;-76
2021/09/16 04:55:01;;;;;;;;;;;;;;;16.31;95.47;96338.34;5057114;28;19963;-76
2021/09/16 04:57:27;;;;;;;;;;;;;;;16.31;96.01;96339.16;5057181;28;19959;-76
2021/09/16 04:59:55;;;;;;;;;;;;;;;16.30;96.21;96340.22;5057092;28;20042;-76
2021/09/16 05:02:21;;;;;;;;;;;;;;;16.31;96.87;96338.34;5057037;28;19973;-75
2021/09/16 05:04:47;;;;;;;;;;;;;;;16.30;96.88;96337.56;5057020;28;19968;-75
2021/09/16 05:07:13;;;;;;;;;;;;;;;16.31;97.01;96335.72;5057489;28;19980;-75
2021/09/16 05:09:39;;;;;;;;;;;;;;;16.30;97.44;96334.94;5056197;28;19960;-76
2021/09/16 05:12:05;;;;;;;;;;;;;;;16.30;96.98;96340.22;5056364;28;20463;-75
2021/09/16 05:14:31;;;;;;;;;;;;;;;16.28;97.40;96342.31;5056857;28;19962;-76
2021/09/16 05:16:57;;;;;;;;;;;;;;;16.27;98.50;96343.34;5056619;28;20331;-76
2021/09/16 05:19:23;;;;;;;;;;;;;;;16.26;97.98;96336.50;5056873;28;19964;-76
2021/09/16 05:21:49;;;;;;;;;;;;;;;16.26;97.69;96336.50;5057066;28;20476;-76
2021/09/16 05:24:18;;;;;;;;;;;;;;;16.27;97.76;96335.41;5056529;28;20335;-76
2021/09/16 05:26:44;;;;;;;;;;;;;;;16.27;97.42;96340.72;5056665;28;20458;-76
2021/09/16 05:29:10;;;;;;;;;;;;;;;16.27;97.85;96334.63;5056372;28;19961;-77
2021/09/16 05:31:36;;;;;;;;;;;;;;;16.24;97.68;96334.09;5056184;28;19965;-77
2021/09/16 05:34:02;;;;;;;;;;;;;;;16.24;97.77;96336.75;5055600;28;20405;-77
2021/09/16 05:36:28;;;;;;;;;;;;;;;16.24;98.62;96339.38;5056234;28;19971;-77
2021/09/16 05:38:54;;;;;;;;;;;;;;;16.24;98.93;96335.94;5056383;28;19966;-78
2021/09/16 05:41:20;;;;;;;;;;;;;;;16.23;99.83;96337.81;5056554;28;20058;-78
2021/09/16 05:43:46;;;;;;;;;;;;;;;16.24;99.40;96334.09;5056084;28;19963;-78
2021/09/16 05:46:12;;;;;;;;;;;;;;;16.25;98.87;96337.53;5055819;28;19975;-79
2021/09/16 05:48:38;;;;;;;;;;;;;;;16.27;98.92;96332.78;5056375;28;20038;-78
2021/09/16 05:51:04;;;;;;;;;;;;;;;16.29;98.68;96341.25;5056012;28;20006;-78
2021/09/16 05:53:30;;;;;;;;;;;;;;;16.33;99.19;96342.34;5056228;28;19973;-78
2021/09/16 05:55:56;;;;;;;;;;;;;;;16.32;99.25;96343.41;5055878;28;20003;-78
2021/09/16 05:58:21;;;;;;;;;;;;;;;16.31;100.00;96341.00;5055953;28;19974;-78
2021/09/16 06:00:47;;;;;;;;;;;;;;;16.29;99.69;96343.91;5055921;28;20010;-79
2021/09/16 06:03:13;;;;;;;;;;;;;;;16.29;99.99;96343.09;5054828;28;20030;-78
2021/09/16 06:05:39;;;;;;;;;;;;;;;16.29;99.95;96348.41;5055698;28;19996;-79
2021/09/16 06:08:05;;;;;;;;;;;;;;;16.28;99.83;96344.97;5054862;28;20420;-78
2021/09/16 06:10:31;;;;;;;;;;;;;;;16.29;100.00;96337.81;5055386;28;20451;-79
2021/09/16 06:12:57;;;;;;;;;;;;;;;16.32;100.00;96351.34;5054381;28;19967;-79
2021/09/16 06:15:23;;;;;;;;;;;;;;;16.35;100.00;96348.16;5055625;28;19967;-79
2021/09/16 06:17:49;;;;;;;;;;;;;;;16.38;100.00;96352.19;5055714;28;19974;-79
2021/09/16 06:20:15;;;;;;;;;;;;;;;16.40;100.00;96350.84;5055413;28;19958;-79
2021/09/16 06:22:45;;;;;;;;;;;;;;;16.40;99.35;96352.72;5055759;28;20005;-79
2021/09/16 06:25:12;;;;;;;;;;;;;;;16.43;99.46;96354.84;5054727;28;19983;-80
2021/09/16 06:27:37;;;;;;;;;;;;;;;16.46;99.95;96356.16;5055277;28;20005;-80
2021/09/16 06:30:04;;;;;;;;;;;;;;;16.48;99.95;96360.13;5055146;28;20446;-80
2021/09/16 06:32:29;;;;;;;;;;;;;;;16.52;100.00;96363.88;5055506;28;19963;-80
2021/09/16 06:34:55;;;;;;;;;;;;;;;16.53;99.92;96364.69;5055283;28;20481;-80
2021/09/16 06:37:21;;;;;;;;;;;;;;;16.54;99.89;96363.63;5055160;28;20453;-80
2021/09/16 06:39:47;;;;;;;;;;;;;;;16.55;99.56;96358.06;5053121;28;19995;-79
2021/09/16 06:42:13;;;;;;;;;;;;;;;16.59;99.22;96358.38;5055136;28;20043;-80
2021/09/16 06:44:39;;;;;;;;;;;;;;;16.62;99.70;96350.69;5054765;28;19974;-80
2021/09/16 06:47:06;;;;;;;;;;;;;;;16.62;99.51;96357.84;5055037;28;19989;-80
2021/09/16 06:49:36;;;;;;;;;;;;;;;16.63;99.22;96362.88;5055071;28;19986;-80
2021/09/16 06:52:03;;;;;;;;;;;;;;;16.63;98.86;96360.22;5055350;28;19965;-80
2021/09/16 06:54:29;;;;;;;;;;;;;;;16.66;98.95;96363.41;5054665;28;19973;-80
2021/09/16 06:56:55;;;;;;;;;;;;;;;16.68;99.75;96358.66;5053722;28;19965;-80
2021/09/16 06:59:21;;;;;;;;;;;;;;;16.69;99.79;96366.31;5054788;28;20018;-80
2021/09/16 07:01:47;;;;;;;;;;;;;;;16.71;99.62;96369.50;5055143;28;19970;-80
2021/09/16 07:04:13;;;;;;;;;;;;;;;16.71;99.24;96368.72;5054562;28;19967;-80
2021/09/16 07:06:39;;;;;;;;;;;;;;;16.74;99.35;96373.53;5054486;28;20059;-80
2021/09/16 07:09:05;;;;;;;;;;;;;;;16.76;99.23;96369.56;5054656;28;20498;-80
2021/09/16 07:11:31;;;;;;;;;;;;;;;16.78;100.00;96370.09;5054530;28;19967;-80
2021/09/16 07:13:57;;;;;;;;;;;;;;;16.85;99.49;96369.88;5054370;28;19967;-80
2021/09/16 07:16:23;;;;;;;;;;;;;;;16.90;98.49;96369.09;5054706;28;19967;-81
2021/09/16 07:18:48;;;;;;;;;;;;;;;16.95;98.56;96382.38;5054438;28;20024;-80
2021/09/16 07:21:14;;;;;;;;;;;;;;;17.04;99.43;96378.16;5054596;28;20343;-80
2021/09/16 07:23:40;;;;;;;;;;;;;;;17.11;99.84;96383.97;5053875;28;19985;-80
2021/09/16 07:26:06;;;;;;;;;;;;;;;17.13;98.29;96389.03;5054173;28;19993;-80
2021/09/16 07:28:35;;;;;;;;;;;;;;;17.14;98.01;96394.06;5054018;28;19974;-80
2021/09/16 07:31:02;;;;;;;;;;;;;;;17.14;97.81;96388.78;5054816;28;19984;-80
2021/09/16 07:33:28;;;;;;;;;;;;;;;17.16;98.58;96389.31;5054065;28;20446;-80
2021/09/16 07:35:54;;;;;;;;;;;;;;;17.13;96.98;96396.97;5054135;28;19962;-80
2021/09/16 07:38:20;;;;;;;;;;;;;;;17.13;97.83;96404.94;5053898;28;19960;-81
2021/09/16 07:40:46;;;;;;;;;;;;;;;17.13;98.14;96395.13;5053816;28;20040;-80
2021/09/16 07:43:12;;;;;;;;;;;;;;;17.17;97.40;96406.00;5052872;28;20021;-80
2021/09/16 07:45:38;;;;;;;;;;;;;;;17.18;97.83;96399.66;5052974;28;19993;-80
2021/09/16 07:48:04;;;;;;;;;;;;;;;17.17;96.12;96400.69;5054293;28;20447;-80
2021/09/16 07:50:30;;;;;;;;;;;;;;;17.16;95.94;96413.16;5053873;28;19970;-80
2021/09/16 07:52:57;;;;;;;;;;;;;;;17.16;96.88;96415.81;5053697;28;19984;-80
2021/09/16 07:55:22;;;;;;;;;;;;;;;17.16;97.13;96422.97;5053525;28;19971;-80
2021/09/16 07:57:48;;;;;;;;;;;;;;;17.16;98.34;96430.91;5052358;28;20051;-80
2021/09/16 08:00:14;;;;;;;;;;;;;;;17.15;98.67;96427.47;5054208;28;20328;-76
2021/09/16 08:02:47;;;;;;;;;;;;;;;17.15;98.72;96421.38;5053830;28;20336;-74
2021/09/16 08:05:13;;;;;;;;;;;;;;;17.12;99.70;96421.91;5053465;28;19963;-74
2021/09/16 08:07:39;;;;;;;;;;;;;;;17.09;99.99;96425.06;5053666;28;19976;-75
2021/09/16 08:10:05;;;;;;;;;;;;;;;17.07;100.00;96440.41;5053609;28;20326;-75
2021/09/16 08:12:31;;;;;;;;;;;;;;;17.04;98.68;96433.78;5053666;28;19997;-74
2021/09/16 08:14:57;;;;;;;;;;;;;;;16.96;100.00;96439.56;5053530;28;20426;-75
2021/09/16 08:17:23;;;;;;;;;;;;;;;16.94;100.00;96444.34;5053492;28;19969;-74
2021/09/16 08:19:49;;;;;;;;;;;;;;;16.89;99.96;96444.31;5053534;28;20059;-73
2021/09/16 08:22:15;;;;;;;;;;;;;;;16.86;99.75;96439.53;5053406;28;19977;-74
2021/09/16 08:24:41;;;;;;;;;;;;;;;16.84;99.90;96442.47;5052275;28;19975;-74
2021/09/16 08:27:07;;;;;;;;;;;;;;;16.82;99.13;96452.50;5053214;28;19974;-74
2021/09/16 08:29:33;;;;;;;;;;;;;;;16.81;98.76;96462.28;5052923;28;19971;-74
2021/09/16 08:31:59;;;;;;;;;;;;;;;16.76;99.48;96469.38;5053313;28;19951;-75
2021/09/16 08:34:26;;;;;;;;;;;;;;;16.69;98.78;96472.25;5052652;28;19964;-75
2021/09/16 08:36:53;;;;;;;;;;;;;;;16.65;98.33;96479.09;5053071;28;19961;-75
2021/09/16 08:39:19;;;;;;;;;;;;;;;16.59;97.87;96480.94;5053423;28;19963;-75
2021/09/16 08:41:45;;;;;;;;;;;;;;;16.52;98.05;96477.69;5052367;28;19971;-75
2021/09/16 08:44:11;;;;;;;;;;;;;;;16.47;98.99;96477.69;5053360;28;20333;-75
2021/09/16 08:46:37;;;;;;;;;;;;;;;16.43;99.59;96479.25;5053211;28;19973;-75
2021/09/16 08:49:03;;;;;;;;;;;;;;;16.42;99.77;96482.91;5052568;28;19957;-75
2021/09/16 08:51:30;;;;;;;;;;;;;;;16.41;99.99;96479.47;5053243;28;19972;-76
2021/09/16 08:53:56;;;;;;;;;;;;;;;16.40;99.86;96480.56;5053303;28;19991;-75
2021/09/16 08:56:23;;;;;;;;;;;;;;;16.40;100.00;96482.41;5043277;28;19968;-75
2021/09/16 08:58:49;;;;;;;;;;;;;;;16.39;99.89;96488.72;5040036;28;19959;-75
2021/09/16 09:01:15;;;;;;;;;;;;;;;16.37;99.67;96488.19;5053134;28;19979;-75
2021/09/16 09:03:41;;;;;;;;;;;;;;;16.34;99.43;96494.00;5052428;28;19969;-76
2021/09/16 09:06:43;;;;;;;;;;;;;;;16.32;99.99;96490.81;5053083;28;19955;-76
2021/09/16 09:09:11;;;;;;;;;;;;;;;16.28;100.00;96487.88;4975883;28;19961;-76
2021/09/16 09:11:54;;;;;;;;;;;;;;;16.23;98.94;96491.28;5044573;28;19958;-76
2021/09/16 09:14:21;;;;;;;;;;;;;;;16.19;99.41;96499.94;5057046;28;20429;-76
2021/09/16 09:16:47;;;;;;;;;;;;;;;16.17;99.37;96491.50;5056415;28;19963;-75
2021/09/16 09:19:15;;;;;;;;;;;;;;;16.17;99.41;96497.56;5057012;28;19962;-75
2021/09/16 09:21:42;;;;;;;;;;;;;;;16.13;99.08;96498.34;5056153;28;19963;-76
2021/09/16 09:24:08;;;;;;;;;;;;;;;16.08;99.22;96496.41;5056547;28;19989;-76
2021/09/16 09:26:35;;;;;;;;;;;;;;;16.02;99.10;96495.59;5056474;28;19983;-76
2021/09/16 09:29:07;;;;;;;;;;;;;;;15.95;97.71;96502.91;5056431;28;19957;-76
2021/09/16 09:31:38;;;;;;;;;;;;;;;15.92;99.30;96507.94;5056274;28;19966;-77
2021/09/16 09:34:36;;;;;;;;;;;;;;;15.92;99.39;96510.56;5056485;28;19966;-77
2021/09/16 09:37:16;;;;;;;;;;;;;;;15.90;98.32;96510.03;5022704;28;20451;-77
2021/09/16 09:39:43;;;;;;;;;;;;;;;15.87;97.38;96518.44;5041300;28;20316;-77
2021/09/16 09:42:14;;;;;;;;;;;;;;;15.83;98.17;96515.50;5055325;28;20412;-77
2021/09/16 09:44:40;;;;;;;;;;;;;;;15.85;98.38;96518.69;5056752;28;19978;-77
2021/09/16 09:47:06;;;;;;;;;;;;;;;15.85;98.13;96518.69;5056011;28;19979;-77
2021/09/16 09:49:34;;;;;;;;;;;;;;;15.86;98.34;96517.66;5056098;28;20346;-78
2021/09/16 09:52:01;;;;;;;;;;;;;;;15.90;97.86;96515.31;5054355;28;19967;-78
2021/09/16 09:54:32;;;;;;;;;;;;;;;15.94;97.87;96527.00;5056060;28;19979;-78
2021/09/16 09:56:59;;;;;;;;;;;;;;;16.11;98.97;96511.00;5056255;28;19963;-78
2021/09/16 09:59:26;;;;;;;;;;;;;;;16.27;98.33;96509.28;5055949;28;19966;-78
2021/09/16 10:02:02;;;;;;;;;;;;;;;16.40;97.92;96506.22;5054713;28;19966;-79
2021/09/16 10:04:28;;;;;;;;;;;;;;;16.51;97.64;96499.94;5055552;28;19970;-78
2021/09/16 10:06:55;;;;;;;;;;;;;;;16.62;96.23;96500.81;5055635;28;19986;-79
2021/09/16 10:09:21;;;;;;;;;;;;;;;16.73;96.05;96507.75;5055630;28;19976;-79
2021/09/16 10:11:49;;;;;;;;;;;;;;;16.83;96.49;96507.84;5054929;28;19972;-79
2021/09/16 10:14:15;;;;;;;;;;;;;;;16.90;94.84;96522.72;5054775;28;19954;-80
2021/09/16 10:16:42;;;;;;;;;;;;;;;16.89;93.86;96518.50;5054650;28;19969;-80
2021/09/16 10:19:08;;;;;;;;;;;;;;;16.86;93.92;96519.78;5055289;28;19972;-80
2021/09/16 10:21:34;;;;;;;;;;;;;;;16.81;93.33;96511.81;5055304;28;20320;-80
2021/09/16 10:24:00;;;;;;;;;;;;;;;16.76;93.33;96515.22;5056009;28;19987;-80
2021/09/16 10:26:31;;;;;;;;;;;;;;;16.71;93.66;96520.44;5053655;28;19968;-80
2021/09/16 10:28:57;;;;;;;;;;;;;;;16.68;93.51;96526.28;5055050;28;20416;-80
2021/09/16 10:31:25;;;;;;;;;;;;;;;16.68;92.98;96520.19;5055132;28;19977;-81
2021/09/16 10:33:51;;;;;;;;;;;;;;;16.66;93.04;96523.09;5055329;28;19978;-80
2021/09/16 10:36:17;;;;;;;;;;;;;;;16.64;93.41;96520.69;5055159;28;20359;-80
2021/09/16 10:38:45;;;;;;;;;;;;;;;16.55;92.71;96516.91;5054932;28;19957;-80
2021/09/16 10:41:14;;;;;;;;;;;;;;;16.53;93.55;96526.97;5055208;28;19975;-80
2021/09/16 10:43:42;;;;;;;;;;;;;;;16.49;92.64;96527.72;5055039;28;19961;-80
2021/09/16 10:46:27;;;;;;;;;;;;;;;16.44;93.34;96534.56;5054990;28;19965;-80
2021/09/16 10:48:53;;;;;;;;;;;;;;;16.44;93.36;96536.41;5054947;28;19968;-80
2021/09/16 10:51:42;;;;;;;;;;;;;;;16.43;93.77;96538.25;5054890;28;20422;-80
2021/09/16 10:54:20;;;;;;;;;;;;;;;16.42;93.93;96535.84;5054968;28;19993;-80
2021/09/16 10:56:57;;;;;;;;;;;;;;;16.44;94.06;96536.41;5054966;28;19963;-80
2021/09/16 10:59:25;;;;;;;;;;;;;;;16.45;93.93;96538.00;5055148;28;19962;-80
2021/09/16 11:02:02;;;;;;;;;;;;;;;16.48;93.77;96542.00;5091531;28;19971;-81
2021/09/16 11:04:59;;;;;;;;;;;;;;;16.48;92.50;96542.00;5091392;28;20447;-80
2021/09/16 11:07:31;;;;;;;;;;;;;;;16.42;91.55;96541.97;5083158;28;20449;-81
2021/09/16 11:12:48;;;;;;;;;;;;;;;16.32;93.22;96544.53;5091261;28;19973;-80
2021/09/16 11:15:16;;;;;;;;;;;;;;;16.38;92.51;96550.69;5090978;28;19955;-81
2021/09/16 11:17:43;;;;;;;;;;;;;;;16.45;92.92;96545.97;5091047;28;19971;-81
2021/09/16 11:20:20;;;;;;;;;;;;;;;16.59;93.29;96546.34;5111484;27;19984;-81
2021/09/16 11:22:58;;;;;;;;;;;;;;;16.73;91.49;96551.97;5112156;27;19974;-79
2021/09/16 11:25:42;;;;;;;;;;;;;;;16.83;91.41;96544.13;5091541;28;19969;-81
2021/09/16 11:28:20;;;;;;;;;;;;;;;16.95;89.80;96544.75;5128023;27;20019;-82
2021/09/16 11:30:58;;;;;;;;;;;;;;;17.02;89.61;96532.06;5131256;27;20019;-83
2021/09/16 11:33:36;;;;;;;;;;;;;;;17.08;90.52;96535.53;5131963;27;20020;-82
2021/09/16 11:36:13;;;;;;;;;;;;;;;17.09;89.83;96545.06;5129019;27;20006;-82
2021/09/16 11:39:11;;;;;;;;;;;;;;;17.06;89.78;96544.81;5091326;28;19966;-82
2021/09/16 11:42:06;;;;;;;;;;;;;;;17.01;90.01;96548.25;5091415;28;20339;-82
2021/09/16 11:45:01;;;;;;;;;;;;;;;16.96;89.82;96543.69;5091618;28;19961;-83
2021/09/16 11:47:40;;;;;;;;;;;;;;;16.91;90.41;96542.88;5132170;27;20428;-82
2021/09/16 11:50:27;;;;;;;;;;;;;;;16.86;90.10;96542.81;5111623;27;19959;-83
2021/09/16 11:53:24;;;;;;;;;;;;;;;16.84;89.97;96538.59;5111614;27;20417;-82
2021/09/16 11:56:04;;;;;;;;;;;;;;;16.88;90.71;96533.56;5111773;27;20304;-84
2021/09/16 11:58:40;;;;;;;;;;;;;;;16.97;91.41;96529.41;5132022;27;20060;-82
2021/09/16 12:01:18;;;;;;;;;;;;;;;17.11;90.99;96535.03;5111853;27;20066;-84
2021/09/16 12:04:00;;;;;;;;;;;;;;;17.35;91.39;96531.97;5091206;28;19978;-84
2021/09/16 12:06:37;;;;;;;;;;;;;;;17.61;90.06;96515.06;5131832;27;20026;-84
2021/09/16 12:09:16;;;;;;;;;;;;;;;17.81;88.84;96516.22;5128038;27;20423;-83
2021/09/16 12:11:59;;;;;;;;;;;;;;;17.96;87.00;96510.94;5132069;27;19994;-83
2021/09/16 12:14:36;;;;;;;;;;;;;;;18.01;86.81;96505.63;5131055;27;20003;-84
2021/09/16 12:17:14;;;;;;;;;;;;;;;17.99;86.39;96506.97;5091343;28;19967;-84
2021/09/16 12:19:53;;;;;;;;;;;;;;;17.94;86.45;96502.47;5131164;27;20067;-85
2021/09/16 12:22:32;;;;;;;;;;;;;;;17.99;87.41;96499.00;5112033;27;19969;-84
2021/09/16 12:25:09;;;;;;;;;;;;;;;18.11;86.71;96498.75;5125548;27;20400;-84
2021/09/16 12:28:00;;;;;;;;;;;;;;;18.24;85.70;96501.69;5128881;27;20058;-84
2021/09/16 12:30:39;;;;;;;;;;;;;;;18.45;85.41;96489.19;5132079;27;20078;-83
2021/09/16 12:33:26;;;;;;;;;;;;;;;18.55;85.91;96487.59;5112552;27;20005;-84
2021/09/16 12:36:19;;;;;;;;;;;;;;;18.61;84.97;96484.66;5129999;27;20029;-84
2021/09/16 12:39:03;;;;;;;;;;;;;;;18.61;84.33;96487.31;5091418;28;20313;-84
2021/09/16 12:41:43;;;;;;;;;;;;;;;18.47;79.70;96486.28;5111873;27;19967;-84
2021/09/16 12:44:24;;;;;;;;;;;;;;;18.43;82.96;96483.34;5132111;27;20004;-85
2021/09/16 12:47:15;;;;;;;;;;;;;;;18.51;84.15;96484.69;5125278;27;20009;-84
2021/09/16 12:49:53;;;;;;;;;;;;;;;18.53;84.52;96487.06;5091759;28;19974;-85
2021/09/16 12:52:30;;;;;;;;;;;;;;;18.45;83.49;96486.53;5130811;27;20003;-84
2021/09/16 12:55:12;;;;;;;;;;;;;;;18.34;83.68;96490.28;5131991;27;20049;-84